KDOV

Dover AFB Airport

Dover, Delaware, USA
METAR KDOV 201956Z 06009KT 10SM SCT024 BKN039 OVC050 24/20 A3008 RMK SLP189 T02420201 $
Observed Flight Rules
Aug-20 @ 19:56 UTC (33 minutes ago) Visual Flight Rules
Wind Visibility Clouds
60° at 9 knots 10 miles
  • Scattered at 2,400' AGL
  • Broken at 3,900' AGL
  • Overcast at 5,000' AGL
Temperatures Readings
Current 24°C / 75°F
Dewpoint 20°C / 68°F
Humidity 78%
Altimeter 30.08" Hg
Pressure 1018.9 hPa
Elevation 9
METAR KDOV 201956Z 06009KT 10SM SCT024 BKN039 OVC050 24/20 A3008 RMK SLP189 T02420201 $
Observed Flight Rules
Aug-20 @ 19:56 UTC
(33 minutes ago)
VFR
Wind Visibility
60° at 9 knots 10 miles
Clouds
  • Scattered at 2,400' AGL
  • Broken at 3,900' AGL
  • Overcast at 5,000' AGL
Temperature Dewpoint
24°C / 75°F 20°C / 68°F
Humidity Altimeter Pressure
78% 30.08" Hg 1018.9 hPa